Time;durP1;ratioP1;P1;durP2;ratioP2;P2;SDS_P1;SDS_P2;PMS_P1;PMS_P2;Temp;Humidity;BMP_temperature;BMP_pressure;BME280_temperature;BME280_humidity;BME280_pressure;Samples;Min_cycle;Max_cycle;Signal;HPM_P1;HPM_P2
2022/06/18 00:01:39;;;;;;;8.75;5.70;;;;;;;14.65;72.40;99280.27;1754723;80;27093;-64
2022/06/18 00:04:12;;;;;;;8.18;6.30;;;;;;;14.65;72.08;99281.65;1776398;80;25597;-59
2022/06/18 00:06:59;;;;;;;9.88;6.70;;;;;;;14.66;72.18;99279.71;1776492;80;27383;-62
2022/06/18 00:09:30;;;;;;;10.15;5.50;;;;;;;14.71;72.08;99280.11;1776520;80;25576;-62
2022/06/18 00:14:46;;;;;;;8.10;5.90;;;;;;;14.62;72.17;99279.54;1776456;80;25739;-61
2022/06/18 00:17:17;;;;;;;6.80;5.37;;;;;;;14.55;72.16;99267.64;1776570;80;25466;-61
2022/06/18 00:19:47;;;;;;;7.35;5.95;;;;;;;14.65;72.26;99282.23;1776678;80;27241;-57
2022/06/18 00:22:20;;;;;;;9.05;5.80;;;;;;;14.67;72.26;99283.52;1776542;80;25840;-62
2022/06/18 00:24:50;;;;;;;8.53;5.62;;;;;;;14.68;72.19;99279.62;1776556;80;25668;-60
2022/06/18 00:27:21;;;;;;;8.73;6.03;;;;;;;14.68;72.19;99279.62;1776539;80;27019;-62
2022/06/18 00:29:51;;;;;;;8.08;6.20;;;;;;;14.68;72.13;99275.48;1776424;80;25678;-61
2022/06/18 00:32:17;;;;;;;7.77;5.80;;;;;;;14.65;72.20;99278.09;1776703;80;28272;-60
2022/06/18 00:34:44;;;;;;;8.50;6.12;;;;;;;14.60;72.19;99279.08;1776154;80;25609;-62
2022/06/18 00:37:17;;;;;;;8.10;6.25;;;;;;;14.59;72.14;99280.78;1776533;80;25426;-63
2022/06/18 00:39:43;;;;;;;9.15;6.25;;;;;;;14.57;72.21;99275.59;1776771;80;26498;-61
2022/06/18 00:42:18;;;;;;;9.23;6.62;;;;;;;14.52;72.30;99282.08;1776171;80;25499;-62
2022/06/18 00:44:51;;;;;;;8.25;6.25;;;;;;;14.50;72.41;99273.30;1778829;80;28026;-62
2022/06/18 00:47:32;;;;;;;8.30;6.15;;;;;;;14.46;72.92;99274.28;1786564;80;25639;-62
2022/06/18 00:50:06;;;;;;;10.53;6.58;;;;;;;14.39;72.89;99278.92;1787159;80;25648;-62
2022/06/18 00:52:40;;;;;;;9.35;6.55;;;;;;;14.39;72.89;99278.92;1786302;80;26002;-61
2022/06/18 00:55:17;;;;;;;10.15;6.65;;;;;;;14.35;72.78;99276.55;1787325;80;25534;-62
2022/06/18 00:58:29;;;;;;;10.40;6.67;;;;;;;14.35;72.79;99282.06;1787056;80;27392;-58
2022/06/18 01:00:56;;;;;;;14.40;7.10;;;;;;;14.38;72.67;99275.34;1786907;80;25824;-62
2022/06/18 01:03:32;;;;;;;11.95;6.92;;;;;;;14.39;72.69;99269.27;1787407;80;25683;-60
2022/06/18 01:06:23;;;;;;;13.90;7.12;;;;;;;14.34;72.79;99263.91;1787246;80;26146;-61
2022/06/18 01:08:55;;;;;;;12.28;6.50;;;;;;;14.34;72.79;99263.91;1787487;80;25656;-62
2022/06/18 01:11:26;;;;;;;10.68;6.92;;;;;;;14.28;72.72;99268.19;1783513;80;27408;-63
2022/06/18 01:13:52;;;;;;;12.50;7.10;;;;;;;14.30;72.61;99267.31;1786358;80;25882;-63
2022/06/18 01:16:19;;;;;;;14.95;7.15;;;;;;;14.26;72.58;99269.66;1787020;80;25703;-62
2022/06/18 01:18:48;;;;;;;13.60;6.58;;;;;;;14.21;72.94;99269.80;1787173;80;25973;-63
2022/06/18 01:21:38;;;;;;;8.00;6.28;;;;;;;14.15;72.85;99263.64;1787244;80;25440;-62
2022/06/18 01:24:18;;;;;;;9.30;6.53;;;;;;;14.14;73.03;99258.69;1786659;80;27281;-62
2022/06/18 01:26:47;;;;;;;10.65;6.50;;;;;;;14.16;72.89;99267.46;1786397;80;25603;-58
2022/06/18 01:29:12;;;;;;;10.18;6.60;;;;;;;14.13;72.99;99261.80;1787325;80;25663;-62
2022/06/18 01:31:39;;;;;;;11.40;6.08;;;;;;;14.15;72.97;99265.02;1787304;80;25970;-62
2022/06/18 01:34:08;;;;;;;9.60;6.05;;;;;;;14.14;72.90;99259.28;1786972;80;25592;-63
2022/06/18 01:36:37;;;;;;;13.22;6.10;;;;;;;14.20;72.80;99258.55;1787356;80;27378;-62
2022/06/18 01:39:08;;;;;;;9.80;6.35;;;;;;;14.24;72.63;99261.71;1786877;80;25707;-63
2022/06/18 01:41:51;;;;;;;11.38;6.00;;;;;;;14.25;72.63;99254.27;1787554;80;25720;-63
2022/06/18 01:44:46;;;;;;;8.33;5.90;;;;;;;14.26;72.55;99248.98;1786998;80;26045;-61
2022/06/18 01:47:24;;;;;;;7.42;5.65;;;;;;;14.23;72.72;99251.01;1787426;80;25411;-61
2022/06/18 01:50:26;;;;;;;7.50;5.20;;;;;;;14.17;72.77;99248.40;1786881;80;27466;-63
2022/06/18 01:52:58;;;;;;;9.00;5.35;;;;;;;14.10;72.86;99245.33;1750038;81;26374;-63
2022/06/18 01:55:29;;;;;;;11.25;5.33;;;;;;;14.04;72.83;99244.67;1749941;82;25822;-62
2022/06/18 01:58:03;;;;;;;8.55;5.25;;;;;;;13.99;72.91;99235.77;1748548;82;26666;-62
2022/06/18 02:00:30;;;;;;;6.47;4.97;;;;;;;13.92;73.12;99232.92;1749452;82;25858;-61
2022/06/18 02:02:59;;;;;;;6.97;5.05;;;;;;;13.93;72.97;99233.70;1750148;82;27427;-62
2022/06/18 02:05:26;;;;;;;11.80;4.42;;;;;;;13.94;73.03;99231.22;1750003;82;25833;-62
2022/06/18 02:07:53;;;;;;;8.98;5.20;;;;;;;13.98;72.88;99234.12;1750063;82;25558;-62
2022/06/18 02:10:28;;;;;;;6.37;4.95;;;;;;;13.93;72.97;99232.33;1750241;82;26105;-61
2022/06/18 02:12:56;;;;;;;6.75;4.55;;;;;;;13.89;73.62;99225.85;1750288;82;25503;-63
2022/06/18 02:15:29;;;;;;;8.73;4.85;;;;;;;13.80;73.23;99227.22;1749795;82;27437;-62
2022/06/18 02:18:00;;;;;;;7.08;4.90;;;;;;;13.68;73.31;99226.48;1749835;82;25600;-62
2022/06/18 02:20:30;;;;;;;6.90;4.92;;;;;;;13.56;73.56;99231.23;1725347;82;25736;-63
2022/06/18 02:22:58;;;;;;;8.68;4.72;;;;;;;13.55;73.61;99231.78;1750341;82;26141;-63
2022/06/18 02:25:28;;;;;;;8.58;4.30;;;;;;;13.57;73.60;99225.95;1750112;82;25699;-63
2022/06/18 02:28:02;;;;;;;4.55;3.92;;;;;;;13.55;73.79;99225.45;1782122;80;26879;-62
2022/06/18 02:30:33;;;;;;;5.12;3.83;;;;;;;13.55;73.58;99229.59;1786848;80;25406;-63
2022/06/18 02:33:24;;;;;;;8.55;4.20;;;;;;;13.54;73.92;99227.42;1786357;80;25687;-61
2022/06/18 02:35:51;;;;;;;4.60;3.85;;;;;;;13.55;73.50;99225.45;1787008;80;26105;-63
2022/06/18 02:38:20;;;;;;;5.97;4.05;;;;;;;13.58;73.52;99226.20;1787181;80;25629;-63
2022/06/18 02:40:47;;;;;;;6.45;4.25;;;;;;;13.59;73.55;99226.46;1787084;80;27446;-63
2022/06/18 02:43:15;;;;;;;7.60;3.98;;;;;;;13.58;73.48;99213.80;1787175;80;25907;-61
2022/06/18 02:45:44;;;;;;;6.85;4.12;;;;;;;13.57;73.52;99218.25;1784936;80;25711;-62
2022/06/18 02:48:11;;;;;;;7.00;4.42;;;;;;;13.60;73.53;99218.99;1781695;80;26001;-64
2022/06/18 02:50:41;;;;;;;7.50;4.40;;;;;;;13.60;73.46;99212.93;1781411;80;25723;-63
2022/06/18 02:53:10;;;;;;;9.63;4.35;;;;;;;13.60;73.50;99217.61;1781693;80;27493;-63
2022/06/18 02:55:47;;;;;;;4.65;3.98;;;;;;;13.61;73.52;99217.85;1781658;80;25697;-62
2022/06/18 02:58:24;;;;;;;6.72;3.65;;;;;;;13.60;73.41;99221.75;1781672;80;25560;-63
2022/06/18 03:00:58;;;;;;;6.08;3.50;;;;;;;13.62;73.28;99220.88;1781612;80;26202;-63
2022/06/18 03:03:29;;;;;;;5.45;3.58;;;;;;;13.64;73.28;99219.97;1781702;80;25756;-63
2022/06/18 03:05:55;;;;;;;5.00;3.65;;;;;;;13.69;73.13;99222.58;1781552;80;27452;-61
2022/06/18 03:08:24;;;;;;;5.67;3.30;;;;;;;13.71;73.06;99220.33;1781558;80;25494;-63
2022/06/18 03:13:39;;;;;;;5.67;4.15;;;;;;;13.85;72.96;99220.75;1781349;80;25657;-63
2022/06/18 03:16:11;;;;;;;5.47;3.33;;;;;;;13.92;72.71;99219.70;1781451;80;25655;-63
2022/06/18 03:18:40;;;;;;;4.95;3.17;;;;;;;14.01;72.58;99223.27;1781710;80;27422;-63
2022/06/18 03:21:24;;;;;;;4.70;3.27;;;;;;;14.13;72.47;99224.59;1781363;80;25587;-59
2022/06/18 03:23:50;;;;;;;7.72;3.58;;;;;;;14.21;72.17;99228.45;1781827;80;25634;-63
2022/06/18 03:26:17;;;;;;;5.92;3.33;;;;;;;14.27;72.69;99221.65;1781937;80;26023;-60
2022/06/18 03:28:45;;;;;;;6.00;3.80;;;;;;;14.35;72.00;99215.89;1781327;80;25611;-63
2022/06/18 03:31:12;;;;;;;4.90;4.17;;;;;;;14.45;71.85;99222.45;1781489;80;27523;-63
2022/06/18 03:33:41;;;;;;;5.62;4.12;;;;;;;14.56;72.41;99221.55;1781314;80;25468;-62
2022/06/18 03:36:10;;;;;;;4.28;3.35;;;;;;;14.68;71.87;99229.14;1781305;80;25576;-63
2022/06/18 03:38:36;;;;;;;10.78;4.35;;;;;;;14.86;71.10;99230.53;1781088;80;26867;-63
2022/06/18 03:41:03;;;;;;;7.42;4.05;;;;;;;15.08;70.76;99222.58;1781487;80;25407;-63
2022/06/18 03:43:30;;;;;;;6.25;3.62;;;;;;;15.08;70.76;99222.58;1781838;80;27423;-63
2022/06/18 03:46:08;;;;;;;6.12;3.70;;;;;;;15.17;70.02;99228.09;1780342;80;25663;-63
2022/06/18 03:48:49;;;;;;;7.00;4.00;;;;;;;15.25;70.46;99226.41;1781721;80;25585;-64
2022/06/18 03:51:16;;;;;;;6.85;3.85;;;;;;;15.30;69.80;99216.02;1781538;80;26037;-64
2022/06/18 03:53:43;;;;;;;5.53;3.70;;;;;;;15.45;69.51;99222.69;1781482;80;25672;-64
2022/06/18 03:56:13;;;;;;;6.40;3.80;;;;;;;15.58;69.92;99231.31;1781436;80;27396;-64
2022/06/18 03:58:40;;;;;;;6.70;3.97;;;;;;;15.70;68.85;99218.72;1781836;80;25628;-64
2022/06/18 04:01:09;;;;;;;5.17;3.70;;;;;;;15.83;68.54;99213.50;1781888;80;25574;-64
2022/06/18 04:03:35;;;;;;;7.47;3.95;;;;;;;15.83;68.54;99213.50;1781721;80;26067;-64
2022/06/18 04:06:01;;;;;;;5.60;3.67;;;;;;;16.04;68.72;99226.57;1781452;80;25597;-58
2022/06/18 04:08:27;;;;;;;6.45;4.00;;;;;;;16.21;68.16;99228.96;1781861;80;27454;-64
2022/06/18 04:10:54;;;;;;;5.87;3.45;;;;;;;16.38;66.87;99227.42;1781722;80;25785;-62
2022/06/18 04:13:20;;;;;;;4.78;3.42;;;;;;;16.41;67.02;99221.20;1781407;80;25435;-64
2022/06/18 04:15:47;;;;;;;5.80;3.30;;;;;;;16.57;66.99;99217.81;1781670;80;26207;-63
2022/06/18 04:18:17;;;;;;;5.15;3.50;;;;;;;16.71;65.67;99220.84;1781664;80;25422;-62
2022/06/18 04:20:44;;;;;;;6.75;3.50;;;;;;;16.83;66.91;99222.84;1781396;80;28332;-63
2022/06/18 04:23:11;;;;;;;7.40;3.62;;;;;;;16.97;66.07;99217.81;1781616;80;25683;-64
2022/06/18 04:25:39;;;;;;;7.90;3.77;;;;;;;17.10;65.64;99226.17;1781533;80;25438;-63
2022/06/18 04:28:05;;;;;;;6.03;4.05;;;;;;;17.20;66.06;99220.73;1781439;80;26910;-62
2022/06/18 04:30:33;;;;;;;6.28;3.50;;;;;;;17.31;65.43;99220.53;1781841;80;25695;-57
2022/06/18 04:33:00;;;;;;;4.50;3.27;;;;;;;17.47;64.78;99222.62;1781479;80;27427;-58
2022/06/18 04:35:26;;;;;;;4.30;3.20;;;;;;;17.62;65.03;99221.10;1781336;80;26388;-58
2022/06/18 04:37:52;;;;;;;6.78;3.52;;;;;;;17.68;64.18;99219.12;1781772;80;25693;-60
2022/06/18 04:40:26;;;;;;;4.78;3.17;;;;;;;17.78;63.91;99222.00;1781620;80;26024;-57
2022/06/18 04:42:51;;;;;;;5.10;3.37;;;;;;;17.81;62.60;99217.72;1781453;80;25410;-57
2022/06/18 04:45:17;;;;;;;5.78;3.65;;;;;;;17.81;63.00;99214.38;1759880;80;27437;-57
2022/06/18 04:47:43;;;;;;;6.53;3.60;;;;;;;17.83;63.11;99218.19;1750995;80;25653;-59
2022/06/18 04:50:15;;;;;;;7.65;4.28;;;;;;;17.93;63.17;99219.66;1750608;82;25551;-57
2022/06/18 04:52:41;;;;;;;6.10;3.70;;;;;;;17.97;62.53;99217.00;1750180;81;26939;-64
2022/06/18 04:55:08;;;;;;;8.90;4.70;;;;;;;18.04;62.49;99218.59;1750531;82;25773;-64
2022/06/18 04:57:34;;;;;;;7.40;4.37;;;;;;;18.13;62.62;99217.12;1750468;82;27401;-64
2022/06/18 05:00:03;;;;;;;8.93;4.22;;;;;;;18.22;63.56;99223.30;1750482;82;25655;-62
2022/06/18 05:02:31;;;;;;;7.72;4.33;;;;;;;18.38;62.65;99221.99;1750190;81;25603;-60
2022/06/18 05:04:57;;;;;;;8.38;3.87;;;;;;;18.41;62.04;99227.41;1750060;82;26083;-64
2022/06/18 05:07:23;;;;;;;6.37;3.77;;;;;;;18.56;61.65;99227.22;1750444;82;25699;-60
2022/06/18 05:09:49;;;;;;;6.85;3.58;;;;;;;18.60;60.88;99224.55;1750072;82;27376;-64
2022/06/18 05:12:16;;;;;;;6.50;4.17;;;;;;;18.62;60.26;99229.97;1750322;81;25728;-57
2022/06/18 05:14:43;;;;;;;6.72;4.30;;;;;;;18.66;61.13;99227.30;1750528;82;25818;-58
2022/06/18 05:17:14;;;;;;;8.23;4.05;;;;;;;18.72;60.35;99227.28;1750440;81;26756;-57
2022/06/18 05:19:40;;;;;;;5.35;3.42;;;;;;;18.74;60.77;99223.55;1749586;81;25482;-57
2022/06/18 05:22:07;;;;;;;6.83;3.42;;;;;;;18.84;60.10;99227.78;1750454;81;28122;-57
2022/06/18 05:24:32;;;;;;;5.78;3.25;;;;;;;18.83;59.72;99223.98;1750411;81;25664;-57
2022/06/18 05:27:00;;;;;;;8.98;3.55;;;;;;;18.85;59.92;99228.60;1750527;81;25518;-57
2022/06/18 05:29:27;;;;;;;7.58;3.67;;;;;;;18.93;59.96;99225.65;1750337;82;26857;-58
2022/06/18 05:31:53;;;;;;;6.75;3.37;;;;;;;19.08;60.72;99223.26;1750117;82;25451;-57
2022/06/18 05:34:19;;;;;;;4.83;3.05;;;;;;;19.24;59.81;99218.29;1750388;82;27456;-63
2022/06/18 05:36:47;;;;;;;5.60;3.20;;;;;;;19.38;59.28;99222.02;1750332;82;25742;-63
2022/06/18 05:39:17;;;;;;;3.65;2.87;;;;;;;19.43;59.66;99221.75;1750127;82;25584;-64
2022/06/18 05:41:43;;;;;;;;;;;;;;;19.64;58.80;99223.41;1753148;81;25931;-63
2022/06/18 05:44:09;;;;;;;5.58;3.08;;;;;;;19.65;59.11;99218.88;1750785;82;25609;-63
2022/06/18 05:46:35;;;;;;;6.55;2.98;;;;;;;19.62;58.00;99230.72;1750373;80;28113;-64
2022/06/18 05:49:01;;;;;;;3.70;2.72;;;;;;;19.68;57.35;99224.30;1750060;82;27188;-64
2022/06/18 05:51:28;;;;;;;5.55;3.20;;;;;;;19.70;57.19;99227.53;1750039;81;25569;-63
2022/06/18 05:53:54;;;;;;;5.45;3.50;;;;;;;19.75;58.08;99228.63;1750319;82;26348;-63
2022/06/18 05:56:20;;;;;;;4.45;3.45;;;;;;;19.98;58.77;99231.31;1750081;82;25460;-58
2022/06/18 05:58:45;;;;;;;4.45;3.15;;;;;;;20.20;58.28;99222.86;1750621;81;27408;-58
2022/06/18 06:01:12;;;;;;;6.55;3.52;;;;;;;20.33;57.47;99219.94;1750416;81;25478;-57
2022/06/18 06:03:37;;;;;;;5.53;3.35;;;;;;;20.46;56.77;99223.39;1750388;82;25673;-57
2022/06/18 06:06:04;;;;;;;5.47;3.05;;;;;;;20.68;58.05;99215.67;1750296;82;25978;-57
2022/06/18 06:08:30;;;;;;;5.75;3.70;;;;;;;20.76;55.90;99219.98;1750105;82;25593;-58
2022/06/18 06:13:40;;;;;;;6.75;3.45;;;;;;;20.96;56.54;99216.59;1750019;82;25564;-58
2022/06/18 06:16:07;;;;;;;7.50;3.47;;;;;;;20.96;55.76;99219.96;1750460;82;25598;-59
2022/06/18 06:18:34;;;;;;;8.33;3.58;;;;;;;20.99;55.42;99208.08;1750357;82;26119;-58
2022/06/18 06:21:02;;;;;;;5.40;3.30;;;;;;;21.03;54.95;99212.53;1750419;82;25673;-58
2022/06/18 06:23:28;;;;;;;5.78;3.55;;;;;;;21.13;54.25;99210.31;1750508;81;27435;-61
2022/06/18 06:25:56;;;;;;;6.35;3.40;;;;;;;21.18;54.57;99208.01;1750379;81;25834;-64
2022/06/18 06:28:29;;;;;;;5.03;3.30;;;;;;;21.33;54.92;99215.80;1750539;81;25618;-63
2022/06/18 06:30:56;;;;;;;6.85;3.87;;;;;;;21.54;54.65;99205.00;1750329;82;25988;-61
2022/06/18 06:33:23;;;;;;;6.37;3.40;;;;;;;21.61;53.13;99197.31;1750384;81;25729;-65
2022/06/18 06:35:51;;;;;;;7.25;3.30;;;;;;;21.55;53.36;99194.63;1750335;81;27553;-65
2022/06/18 06:38:17;;;;;;;8.08;3.67;;;;;;;21.66;53.63;99199.78;1749986;82;25432;-58
2022/06/18 06:40:45;;;;;;;8.28;3.33;;;;;;;21.85;53.45;99191.12;1750511;82;25562;-57
2022/06/18 06:43:14;;;;;;;10.00;3.67;;;;;;;22.08;53.73;99188.00;1750250;82;26203;-62
2022/06/18 06:45:40;;;;;;;7.17;3.25;;;;;;;22.34;53.79;99197.48;1750396;81;25724;-63
2022/06/18 06:48:07;;;;;;;5.22;3.72;;;;;;;22.54;52.59;99193.93;1777762;80;27408;-64
2022/06/18 06:50:33;;;;;;;7.50;3.85;;;;;;;22.73;52.21;99194.92;1781491;80;25596;-63
2022/06/18 06:53:00;;;;;;;6.70;3.70;;;;;;;22.93;51.70;99203.91;1781582;80;25415;-64
2022/06/18 06:58:17;;;;;;;7.37;3.83;;;;;;;23.14;51.54;99199.72;1781618;80;26126;-64
2022/06/18 07:00:48;;;;;;;9.08;4.10;;;;;;;23.15;49.81;99202.13;1781184;80;27392;-64
2022/06/18 07:03:18;;;;;;;8.95;4.22;;;;;;;23.27;50.11;99204.40;1781528;80;25626;-64
2022/06/18 07:05:45;;;;;;;8.05;3.90;;;;;;;23.46;52.59;99200.59;1781365;80;25603;-63
2022/06/18 07:08:12;;;;;;;9.58;4.03;;;;;;;23.78;51.54;99203.39;1781573;80;26162;-64
2022/06/18 07:10:39;;;;;;;5.90;3.87;;;;;;;24.12;50.78;99205.94;1781717;80;25717;-64
2022/06/18 07:13:06;;;;;;;4.80;3.00;;;;;;;24.35;50.26;99202.67;1777461;80;27469;-61
2022/06/18 07:15:34;;;;;;;5.53;3.27;;;;;;;24.43;46.00;99200.90;1781843;80;26248;-64
2022/06/18 07:18:03;;;;;;;5.80;3.00;;;;;;;24.46;49.31;99204.12;1781723;80;25671;-63
2022/06/18 07:20:30;;;;;;;4.83;2.27;;;;;;;24.60;46.56;99201.34;1781874;80;26079;-62
2022/06/18 07:22:58;;;;;;;3.72;2.05;;;;;;;24.85;48.67;99198.38;1781953;80;25653;-63
2022/06/18 07:25:24;;;;;;;4.65;2.05;;;;;;;25.11;48.20;99201.44;1781503;79;26866;-64
2022/06/18 07:27:52;;;;;;;3.08;1.77;;;;;;;25.41;47.16;99198.01;1781718;80;25683;-63
2022/06/18 07:30:20;;;;;;;2.80;1.70;;;;;;;25.69;46.78;99193.59;1781735;80;25572;-63
2022/06/18 07:32:49;;;;;;;1.77;1.42;;;;;;;25.97;44.88;99199.53;1781532;80;26982;-64
2022/06/18 07:35:22;;;;;;;4.87;1.77;;;;;;;26.21;43.78;99196.43;1781413;80;25643;-57
2022/06/18 07:37:49;;;;;;;4.15;1.50;;;;;;;26.31;42.70;99193.42;1779143;80;27415;-64
2022/06/18 07:40:16;;;;;;;2.85;1.50;;;;;;;26.40;42.66;99190.16;1781505;80;25699;-63
2022/06/18 07:42:45;;;;;;;4.50;1.60;;;;;;;26.60;43.69;99192.45;1781550;80;25747;-58
2022/06/18 07:45:22;;;;;;;1.80;1.37;;;;;;;26.67;41.96;99195.21;1766023;80;26383;-59
2022/06/18 07:47:50;;;;;;;1.98;1.35;;;;;;;26.62;38.55;99201.28;1751181;81;25668;-60
2022/06/18 07:50:20;;;;;;;2.33;1.42;;;;;;;26.59;43.13;99204.91;1755671;81;27460;-64
2022/06/18 07:52:47;;;;;;;2.30;1.50;;;;;;;26.74;42.10;99200.78;1755810;81;25645;-65
2022/06/18 07:55:18;;;;;;;3.12;1.35;;;;;;;27.02;41.72;99194.80;1756130;81;25463;-62
2022/06/18 07:57:46;;;;;;;1.40;1.30;;;;;;;27.23;38.47;99190.82;1755803;80;26106;-61
2022/06/18 08:00:16;;;;;;;2.02;1.25;;;;;;;27.20;39.65;99183.21;1755755;80;25480;-65
2022/06/18 08:02:43;;;;;;;1.65;1.27;;;;;;;27.18;39.41;99185.03;1756110;80;27426;-64
2022/06/18 08:05:12;;;;;;;3.52;1.50;;;;;;;27.51;39.44;99184.71;1755987;81;25681;-57
2022/06/18 08:07:40;;;;;;;1.62;1.45;;;;;;;27.81;39.97;99173.39;1756070;81;25755;-57
2022/06/18 08:10:08;;;;;;;1.80;1.30;;;;;;;27.99;37.60;99173.77;1755756;81;26160;-65
2022/06/18 08:12:36;;;;;;;1.90;1.10;;;;;;;28.00;39.12;99175.39;1756005;81;25805;-57
2022/06/18 08:15:05;;;;;;;1.75;1.22;;;;;;;28.15;36.05;99179.59;1755942;81;27467;-57
2022/06/18 08:17:32;;;;;;;1.30;1.20;;;;;;;28.16;37.13;99173.36;1756198;81;25488;-62
2022/06/18 08:19:59;;;;;;;1.30;1.20;;;;;;;28.38;38.95;99166.84;1755841;80;25656;-62
2022/06/18 08:22:26;;;;;;;2.75;1.20;;;;;;;28.58;37.53;99162.56;1755981;80;25992;-63
2022/06/18 08:24:54;;;;;;;2.90;1.20;;;;;;;28.84;37.34;99156.70;1755478;80;25472;-62
2022/06/18 08:27:22;;;;;;;4.12;1.40;;;;;;;29.02;35.66;99161.30;1756045;80;27471;-61
2022/06/18 08:29:49;;;;;;;3.87;1.40;;;;;;;29.11;37.09;99156.51;1755465;81;25770;-63
2022/06/18 08:32:16;;;;;;;1.75;1.25;;;;;;;29.29;35.80;99149.13;1755680;80;25487;-65
2022/06/18 08:34:43;;;;;;;2.10;1.20;;;;;;;28.99;35.11;99144.62;1755578;80;26253;-65
2022/06/18 08:37:10;;;;;;;1.67;1.40;;;;;;;28.97;36.88;99142.03;1755757;80;25749;-64
2022/06/18 08:39:39;;;;;;;2.12;1.60;;;;;;;28.98;37.22;99128.91;1755508;81;27353;-64
2022/06/18 08:42:40;;;;;;;1.57;1.15;;;;;;;29.02;33.48;99124.63;1755794;80;33905;-64
2022/06/18 08:45:38;;;;;;;2.70;1.40;;;;;;;29.18;32.68;99116.27;1755491;81;25728;-62
2022/06/18 08:48:36;;;;;;;4.85;1.70;;;;;;;29.33;33.88;99126.50;1744944;81;26003;-64
2022/06/18 08:51:23;;;;;;;2.37;1.60;;;;;;;29.36;32.88;99116.54;1744496;82;26424;-64
2022/06/18 08:54:33;;;;;;;2.10;1.50;;;;;;;29.15;33.70;99121.36;1743606;82;27327;-65
2022/06/18 08:57:27;;;;;;;1.37;1.20;;;;;;;29.42;35.53;99116.86;1744650;82;25513;-64
2022/06/18 09:00:14;;;;;;;3.70;1.40;;;;;;;29.62;34.69;99121.75;1744909;82;25490;-63
2022/06/18 09:03:15;;;;;;;1.82;1.30;;;;;;;29.68;32.73;99119.38;1744574;82;26053;-61
2022/06/18 09:05:56;;;;;;;2.10;1.62;;;;;;;29.65;32.43;99113.19;1744730;82;25822;-61
2022/06/18 09:09:12;;;;;;;5.60;1.60;;;;;;;29.74;32.94;99111.22;1744082;82;27537;-59
2022/06/18 09:11:49;;;;;;;2.80;1.67;;;;;;;29.82;32.96;99102.59;1744684;82;25668;-65
2022/06/18 09:14:30;;;;;;;1.92;1.70;;;;;;;29.85;32.01;99096.88;1744033;82;25558;-64
2022/06/18 09:17:17;;;;;;;3.05;1.52;;;;;;;29.90;32.16;99102.59;1744629;82;27032;-64
2022/06/18 09:19:49;;;;;;;1.92;1.25;;;;;;;30.00;30.43;99108.66;1744566;82;25775;-63
2022/06/18 09:22:19;;;;;;;2.67;1.30;;;;;;;30.30;32.15;99094.69;1744368;82;27659;-64
2022/06/18 09:24:51;;;;;;;2.30;1.37;;;;;;;30.57;32.10;99097.91;1744700;82;25709;-63
2022/06/18 09:27:25;;;;;;;3.67;1.50;;;;;;;30.68;32.74;99100.45;1744668;82;25875;-64
2022/06/18 09:30:06;;;;;;;2.60;1.40;;;;;;;30.74;32.25;99093.03;1744798;82;25988;-64
2022/06/18 09:32:50;;;;;;;3.92;1.92;;;;;;;30.70;33.90;99091.53;1744542;82;25733;-63
2022/06/18 09:35:28;;;;;;;3.27;1.42;;;;;;;30.96;33.11;99100.20;1744828;81;27502;-64
2022/06/18 09:38:09;;;;;;;2.42;1.60;;;;;;;31.01;32.48;99102.50;1744874;81;25611;-64
2022/06/18 09:40:44;;;;;;;3.40;1.60;;;;;;;30.92;32.36;99090.41;1744714;81;25609;-62
2022/06/18 09:43:37;;;;;;;2.87;1.50;;;;;;;30.80;29.92;99102.61;1743724;81;26924;-62
2022/06/18 09:46:09;;;;;;;2.27;1.22;;;;;;;30.79;31.68;99099.61;1741136;82;26628;-63
2022/06/18 09:48:37;;;;;;;2.17;1.20;;;;;;;30.67;29.09;99097.45;1744621;81;27537;-58
2022/06/18 09:51:20;;;;;;;5.25;1.40;;;;;;;30.52;29.26;99099.84;1744732;82;25735;-61
2022/06/18 09:53:47;;;;;;;3.08;1.27;;;;;;;30.51;30.32;99096.84;1744372;82;25719;-63
2022/06/18 09:56:20;;;;;;;1.95;1.22;;;;;;;30.98;33.08;99103.39;1744627;82;26045;-64
2022/06/18 09:58:55;;;;;;;1.35;1.10;;;;;;;31.38;32.60;99099.54;1742157;82;25794;-62
2022/06/18 10:01:39;;;;;;;1.40;1.00;;;;;;;31.79;29.11;99101.41;1744485;82;27559;-60
2022/06/18 10:06:58;;;;;;;2.42;1.25;;;;;;;32.43;29.43;99100.71;1744540;82;25631;-60
2022/06/18 10:09:45;;;;;;;1.57;1.12;;;;;;;32.27;30.88;99094.52;1742513;82;25782;-62
2022/06/18 10:12:21;;;;;;;;;;;;;;;31.89;28.13;99096.69;1747600;82;25493;-62
2022/06/18 10:15:01;;;;;;;1.00;0.90;;;;;;;31.55;29.75;99098.87;1744491;82;27521;-62
2022/06/18 10:18:02;;;;;;;1.80;1.10;;;;;;;31.51;28.80;99098.96;1744716;82;26019;-61
2022/06/18 10:20:52;;;;;;;1.50;1.05;;;;;;;31.45;30.50;99088.01;1743521;82;25722;-59
2022/06/18 10:23:51;;;;;;;2.98;1.10;;;;;;;31.51;31.85;99089.66;1744521;82;26717;-61
2022/06/18 10:26:48;;;;;;;1.37;1.00;;;;;;;31.97;29.66;99084.55;1745399;81;25476;-57
2022/06/18 10:29:23;;;;;;;1.45;0.93;;;;;;;32.80;30.44;99091.04;1744179;82;27400;-63
2022/06/18 10:32:08;;;;;;;1.00;0.90;;;;;;;33.19;30.13;99076.77;1745077;81;25849;-64
2022/06/18 10:35:07;;;;;;;1.75;1.00;;;;;;;33.60;28.51;99077.55;1744495;81;25622;-64
2022/06/18 10:38:22;;;;;;;1.22;1.10;;;;;;;33.69;26.35;99076.20;1715065;83;31554;-64
2022/06/18 10:41:12;;;;;;;2.50;1.17;;;;;;;33.52;27.00;99067.86;1715065;83;25530;-63
2022/06/18 10:44:18;;;;;;;1.25;1.00;;;;;;;33.68;26.87;99064.67;1714225;83;27561;-58
2022/06/18 10:46:45;;;;;;;2.12;0.90;;;;;;;33.86;25.87;99059.72;1714799;83;26556;-64
2022/06/18 10:49:12;;;;;;;0.90;0.80;;;;;;;33.87;25.93;99059.88;1714840;83;25798;-64
2022/06/18 10:51:48;;;;;;;1.42;1.10;;;;;;;33.65;25.66;99044.30;1714867;83;26045;-63
2022/06/18 10:54:16;;;;;;;1.95;1.00;;;;;;;33.55;25.61;99048.47;1715095;83;25749;-63
2022/06/18 10:56:53;;;;;;;1.32;0.82;;;;;;;33.41;26.12;99042.69;1714850;83;27989;-63
2022/06/18 10:59:40;;;;;;;2.55;0.90;;;;;;;33.20;26.01;99032.92;1712459;83;25750;-63
2022/06/18 11:02:23;;;;;;;0.85;0.82;;;;;;;33.22;26.20;99026.78;1715254;83;25770;-63
2022/06/18 11:04:57;;;;;;;1.30;0.88;;;;;;;33.38;25.00;99018.05;1714502;83;26097;-62
2022/06/18 11:07:28;;;;;;;2.08;0.62;;;;;;;33.54;23.93;99017.68;1714966;83;25510;-63
2022/06/18 11:10:02;;;;;;;2.08;0.70;;;;;;;33.34;27.92;99004.63;1715038;83;26891;-63
2022/06/18 11:12:39;;;;;;;2.02;0.80;;;;;;;33.63;26.90;99007.82;1720731;81;25734;-63
2022/06/18 11:15:26;;;;;;;1.27;0.93;;;;;;;34.03;24.97;99000.58;1755162;81;25736;-62
2022/06/18 11:17:52;;;;;;;1.37;0.80;;;;;;;34.19;25.54;99011.53;1754921;81;26045;-61
2022/06/18 11:20:24;;;;;;;0.93;0.80;;;;;;;34.40;25.23;99004.16;1755073;81;25727;-63
2022/06/18 11:22:55;;;;;;;2.05;0.82;;;;;;;34.65;24.54;98999.47;1755310;81;27380;-64
2022/06/18 11:25:45;;;;;;;1.00;0.80;;;;;;;34.36;21.97;99006.38;1754085;81;25702;-63
2022/06/18 11:28:20;;;;;;;1.25;0.72;;;;;;;34.01;22.32;99009.39;1755107;81;25589;-63
2022/06/18 11:30:50;;;;;;;2.25;0.70;;;;;;;34.01;25.37;99003.71;1754042;81;26164;-62
2022/06/18 11:33:42;;;;;;;1.87;0.80;;;;;;;34.44;26.40;99001.17;1755259;81;25657;-64
2022/06/18 11:36:16;;;;;;;1.42;0.80;;;;;;;34.93;25.04;99002.98;1755313;81;27562;-64
2022/06/18 11:38:54;;;;;;;1.05;0.72;;;;;;;34.93;22.91;98993.67;1755198;81;25569;-64
2022/06/18 11:41:35;;;;;;;0.70;0.70;;;;;;;34.90;23.74;98995.39;1754739;81;25602;-64
2022/06/18 11:44:22;;;;;;;0.88;0.72;;;;;;;35.14;23.92;98996.95;1751153;81;26124;-63
2022/06/18 11:47:02;;;;;;;1.20;0.90;;;;;;;35.24;23.86;98988.42;1754431;81;25645;-64
2022/06/18 11:49:46;;;;;;;1.75;0.70;;;;;;;35.44;24.92;98992.19;1753110;81;27453;-58
2022/06/18 11:52:42;;;;;;;2.50;0.82;;;;;;;35.37;24.39;98981.91;1753247;80;25696;-62
2022/06/18 11:55:26;;;;;;;1.00;0.82;;;;;;;35.32;25.01;98984.62;1753099;81;25669;-63
2022/06/18 11:58:18;;;;;;;0.88;0.70;;;;;;;35.52;23.22;98982.02;1753051;81;26786;-64
2022/06/18 12:01:19;;;;;;;1.15;0.70;;;;;;;35.66;25.08;98980.55;1753332;80;25722;-64
2022/06/18 12:04:09;;;;;;;2.37;1.10;;;;;;;36.03;24.28;98978.20;1753484;81;27401;-63
2022/06/18 12:06:49;;;;;;;1.07;0.98;;;;;;;35.70;23.36;98972.50;1753661;81;25380;-64
2022/06/18 12:09:17;;;;;;;2.02;0.80;;;;;;;36.11;24.84;98971.52;1753765;80;25724;-64
2022/06/18 12:12:19;;;;;;;2.90;0.90;;;;;;;35.95;24.01;98960.52;1753219;81;26053;-64
2022/06/18 12:15:14;;;;;;;0.70;0.70;;;;;;;35.88;24.91;98957.37;1752477;81;25646;-64
2022/06/18 12:17:52;;;;;;;1.20;0.80;;;;;;;35.49;24.14;98953.06;1753266;81;27633;-63